Hatsu Envoy — VSQL9 — position and weather

sailwx.info

Track history (hours):
 
Tides and Currents Weather Stations Pressure Air Temp Water Temp Dewpoint Dewpoint Depression Visibility Wind Speed Wind Dir Waves Ship Positions

Hatsu Envoy

Last reported at 2016-Dec-04 17:33 UTC. Time now 2016-Dec-04 18:19 UTC.
Position N 48°11' W 122°47'.

Type: Cargo ship. MMSI: 235414000.

Date/timePositionNaut miles runAvg speedWind from/ knotsBaromVisibWave heightAir tempDewpointWater temp
2016-Dec-04 17:33N 48°11' W 122°47'1817.7
2016-Dec-04 16:33N 47°57' W 122°32'1616.4
2016-Dec-04 15:34N 47°41' W 122°27'1616.1
2016-Dec-04 14:33N 47°25' W 122°22'9 8.6
2016-Dec-04 13:33N 47°16' W 122°24'1 0.0
2016-Dec-02 16:33N 47°15' W 122°23'5 5.0
2016-Dec-02 15:29N 47°20' W 122°27'1112.4
2016-Dec-02 14:33N 47°31' W 122°26'1514.8
2016-Dec-02 13:33N 47°46' W 122°27'1716.6
2016-Dec-02 12:33N 48°01' W 122°38'8914.0
2016-Dec-02 06:13N 48°29' W 124°44'2413.0
2016-Dec-02 04:23N 48°28' W 125°20'1712.8
2016-Dec-02 03:05N 48°22' W 125°44'  
Track history (hours):
 
Tides and Currents Weather Stations Pressure Air Temp Water Temp Dewpoint Dewpoint Depression Visibility Wind Speed Wind Dir Waves Ship Positions

Hatsu Envoy

Last reported at 2016-Dec-04 17:33 UTC. Time now 2016-Dec-04 18:19 UTC.
Position N 48°11' W 122°47'.

Type: Cargo ship. MMSI: 235414000.

Date/timePositionNaut miles runAvg speedWind from/ knotsBaromVisibWave heightAir tempDewpointWater temp
2016-Dec-04 17:33N 48°11' W 122°47'1817.7
2016-Dec-04 16:33N 47°57' W 122°32'1616.4
2016-Dec-04 15:34N 47°41' W 122°27'1616.1
2016-Dec-04 14:33N 47°25' W 122°22'9 8.6
2016-Dec-04 13:33N 47°16' W 122°24'1 0.0
2016-Dec-02 16:33N 47°15' W 122°23'5 5.0
2016-Dec-02 15:29N 47°20' W 122°27'1112.4
2016-Dec-02 14:33N 47°31' W 122°26'1514.8
2016-Dec-02 13:33N 47°46' W 122°27'1716.6
2016-Dec-02 12:33N 48°01' W 122°38'8914.0
2016-Dec-02 06:13N 48°29' W 124°44'2413.0
2016-Dec-02 04:23N 48°28' W 125°20'1712.8
2016-Dec-02 03:05N 48°22' W 125°44'  

Dump ship's entire track history